Terminal Aerodrome Forecast
Issued by NWS

Home | Current Version | Previous Version | Text Only | Print | Product List | Glossary On
Versions: 1 2 3 4 5 6 7 8 9 10 11 12 13
000
FTAK31 PANC 042339
TAFADL
TAF
PADL 042339Z 0500/0524 03008KT P6SM SKC
     FM050300 02012G20KT P6SM SCT120
     FM051500 36016G25KT P6SM VCSH SCT030 BKN050
     FM052000 01015G25KT 5SM -SN BLSN SCT010 BKN020
     FM052300 01018G28KT 2SM -SN BLSN BKN012=

USA.gov is the U.S. government's official web portal to all federal, state and local government web resources and services.